createdAt,value
2017-05-23T00:00:14.682Z,67.60
2017-05-23T00:02:42.032Z,67.60
2017-05-23T00:05:09.391Z,67.40
2017-05-23T00:07:36.334Z,67.40
2017-05-23T00:10:03.691Z,67.80
2017-05-23T00:12:30.581Z,67.80
2017-05-23T00:14:57.887Z,67.90
2017-05-23T00:17:24.829Z,67.90
2017-05-23T00:19:52.118Z,67.80
2017-05-23T00:22:19.401Z,67.90
2017-05-23T00:24:46.738Z,68.00
2017-05-23T00:27:14.062Z,68.10
2017-05-23T00:29:41.004Z,68.10
2017-05-23T00:32:08.358Z,68.40
2017-05-23T00:34:35.651Z,68.40
2017-05-23T00:37:02.562Z,68.40
2017-05-23T00:39:29.610Z,68.40
2017-05-23T00:41:56.902Z,68.50
2017-05-23T00:44:24.210Z,68.40
2017-05-23T00:46:51.557Z,68.60
2017-05-23T00:49:18.850Z,68.70
2017-05-23T00:51:45.750Z,68.70
2017-05-23T00:54:13.125Z,68.70
2017-05-23T00:56:40.019Z,68.70
2017-05-23T00:59:07.318Z,68.50
2017-05-23T01:01:34.278Z,68.50
2017-05-23T01:04:01.634Z,68.70
2017-05-23T01:06:28.909Z,69.00
2017-05-23T01:08:56.235Z,69.20
2017-05-23T01:11:23.182Z,69.20
2017-05-23T01:13:50.946Z,69.00
2017-05-23T01:16:18.302Z,68.70
2017-05-23T01:18:45.658Z,69.20
2017-05-23T01:21:13.018Z,69.00
2017-05-23T01:23:39.981Z,69.00
2017-05-23T01:26:06.917Z,69.10
2017-05-23T01:28:34.276Z,69.00
2017-05-23T01:31:01.927Z,69.20
2017-05-23T01:33:28.883Z,69.20
2017-05-23T01:35:56.179Z,69.10
2017-05-23T01:38:23.514Z,69.20
2017-05-23T01:40:50.401Z,69.20
2017-05-23T01:43:17.690Z,69.10
2017-05-23T01:45:45.356Z,69.50
2017-05-23T01:48:12.639Z,69.00
2017-05-23T01:50:39.525Z,69.10
2017-05-23T01:53:06.910Z,69.40
2017-05-23T01:55:34.205Z,69.50
2017-05-23T01:58:01.505Z,70.20
2017-05-23T02:00:28.453Z,70.20
2017-05-23T02:02:55.746Z,70.40
2017-05-23T02:05:23.034Z,70.60
2017-05-23T02:07:50.014Z,70.60
2017-05-23T02:10:17.378Z,71.40
2017-05-23T02:12:44.737Z,71.40
2017-05-23T02:15:12.086Z,71.70
2017-05-23T02:17:39.067Z,71.70
2017-05-23T02:20:06.378Z,71.50
2017-05-23T02:22:33.362Z,71.50
2017-05-23T02:25:00.656Z,72.20
2017-05-23T02:27:27.633Z,72.20
2017-05-23T02:29:54.986Z,72.80
2017-05-23T02:32:22.351Z,73.00
2017-05-23T02:34:49.677Z,72.80
2017-05-23T02:37:16.965Z,72.80
2017-05-23T02:39:43.907Z,72.80
2017-05-23T02:42:11.263Z,73.20
2017-05-23T02:44:38.620Z,73.30
2017-05-23T02:47:05.557Z,73.30
2017-05-23T02:49:32.522Z,73.30
2017-05-23T02:51:59.858Z,73.60
2017-05-23T02:54:27.224Z,73.80
2017-05-23T02:56:54.575Z,74.20
2017-05-23T02:59:21.942Z,74.30
2017-05-23T03:01:48.885Z,74.10
2017-05-23T03:04:16.338Z,73.90
2017-05-23T03:06:43.233Z,73.90
2017-05-23T03:09:10.134Z,74.00
2017-05-23T03:11:37.461Z,73.70
2017-05-23T03:14:04.365Z,73.70
2017-05-23T03:16:31.669Z,73.70
2017-05-23T03:18:58.627Z,73.70
2017-05-23T03:21:25.940Z,73.50
2017-05-23T03:23:53.236Z,73.50
2017-05-23T03:26:20.162Z,73.50
2017-05-23T03:28:47.446Z,73.00
2017-05-23T03:31:14.802Z,73.00
2017-05-23T03:33:41.834Z,73.10
2017-05-23T03:36:09.197Z,73.20
2017-05-23T03:38:36.482Z,72.90
2017-05-23T03:41:03.913Z,73.10
2017-05-23T03:43:31.286Z,72.90
2017-05-23T03:45:58.581Z,72.80
2017-05-23T03:48:25.918Z,72.80
2017-05-23T03:50:52.807Z,72.90
2017-05-23T03:53:20.191Z,72.50
2017-05-23T03:55:47.551Z,72.40
2017-05-23T03:58:14.487Z,72.40
2017-05-23T04:00:42.154Z,72.40
2017-05-23T04:03:09.439Z,72.40
2017-05-23T04:05:36.760Z,72.50
2017-05-23T04:08:03.701Z,72.50
2017-05-23T04:10:31.011Z,72.40
2017-05-23T04:12:58.312Z,72.60
2017-05-23T04:15:25.676Z,72.30
2017-05-23T04:17:52.963Z,72.00
2017-05-23T04:20:20.249Z,72.10
2017-05-23T04:22:47.629Z,71.50
2017-05-23T04:25:14.586Z,71.50
2017-05-23T04:27:41.871Z,71.30
2017-05-23T04:30:09.198Z,71.50
2017-05-23T04:32:36.090Z,71.50
2017-05-23T04:35:03.385Z,71.60
2017-05-23T04:37:30.325Z,71.60
2017-05-23T04:39:57.619Z,71.40
2017-05-23T04:42:24.515Z,71.40
2017-05-23T04:44:51.450Z,71.40
2017-05-23T04:47:18.731Z,71.10
2017-05-23T04:49:46.102Z,71.10
2017-05-23T04:52:13.045Z,71.10
2017-05-23T04:54:40.395Z,70.60
2017-05-23T04:57:07.755Z,70.60
2017-05-23T04:59:35.110Z,70.50
2017-05-23T05:02:02.063Z,70.50
2017-05-23T05:04:29.375Z,71.50
2017-05-23T05:06:56.766Z,71.50
2017-05-23T05:09:24.127Z,72.20
2017-05-23T05:11:51.473Z,72.50
2017-05-23T05:14:18.826Z,72.60
2017-05-23T05:16:46.186Z,72.20
2017-05-23T05:19:13.891Z,71.80
2017-05-23T05:21:41.229Z,71.90
2017-05-23T05:24:08.561Z,71.60
2017-05-23T05:26:35.550Z,71.60
2017-05-23T05:29:02.890Z,71.10
2017-05-23T05:31:29.809Z,71.10
2017-05-23T05:33:57.085Z,70.90
2017-05-23T05:36:24.525Z,70.60
2017-05-23T05:38:51.877Z,70.40
2017-05-23T05:41:19.158Z,70.40
2017-05-23T05:43:46.103Z,70.40
2017-05-23T05:46:13.438Z,70.20
2017-05-23T05:48:40.331Z,70.20
2017-05-23T05:51:07.742Z,69.50
2017-05-23T05:53:35.022Z,69.10
2017-05-23T05:56:02.310Z,69.40
2017-05-23T05:58:29.702Z,69.80
2017-05-23T06:00:57.067Z,70.20
2017-05-23T06:03:24.422Z,70.00
2017-05-23T06:05:51.781Z,69.70
2017-05-23T06:08:19.126Z,69.70
2017-05-23T06:10:46.486Z,69.80
2017-05-23T06:13:13.841Z,69.40
2017-05-23T06:15:41.145Z,69.20
2017-05-23T06:18:08.450Z,69.20
2017-05-23T06:20:35.779Z,69.10
2017-05-23T06:23:03.169Z,69.10
2017-05-23T06:25:30.517Z,68.60
2017-05-23T06:27:57.870Z,68.30
2017-05-23T06:30:24.760Z,68.30
2017-05-23T06:32:52.038Z,68.00
2017-05-23T06:35:19.454Z,67.70
2017-05-23T06:37:46.343Z,67.70
2017-05-23T06:40:13.259Z,67.50
2017-05-23T06:42:40.577Z,67.20
2017-05-23T06:45:07.929Z,67.60
2017-05-23T06:47:35.324Z,67.50
2017-05-23T06:50:02.273Z,67.50
2017-05-23T06:52:29.566Z,66.50
2017-05-23T06:54:56.578Z,66.50
2017-05-23T06:57:23.923Z,66.50
2017-05-23T06:59:51.254Z,66.90
2017-05-23T07:02:18.541Z,67.40
2017-05-23T07:04:45.877Z,67.40
2017-05-23T07:07:13.177Z,67.60
2017-05-23T07:09:40.466Z,67.20
2017-05-23T07:12:07.874Z,66.60
2017-05-23T07:14:35.169Z,66.20
2017-05-23T07:17:02.454Z,66.60
2017-05-23T07:19:29.419Z,66.60
2017-05-23T07:21:56.329Z,66.70
2017-05-23T07:24:23.613Z,66.60
2017-05-23T07:26:50.949Z,66.40
2017-05-23T07:29:17.957Z,66.40
2017-05-23T07:31:45.270Z,66.00
2017-05-23T07:34:12.601Z,66.20
2017-05-23T07:36:39.892Z,66.00
2017-05-23T07:39:07.241Z,65.50
2017-05-23T07:41:34.614Z,65.10
2017-05-23T07:44:01.903Z,64.60
2017-05-23T07:46:29.211Z,64.30
2017-05-23T07:48:56.582Z,63.90
2017-05-23T07:51:23.922Z,63.40
2017-05-23T07:53:50.809Z,63.40
2017-05-23T07:56:18.257Z,63.80
2017-05-23T07:58:45.165Z,63.80
2017-05-23T08:01:12.462Z,63.00
2017-05-23T08:03:39.878Z,62.30
2017-05-23T08:06:07.235Z,61.70
2017-05-23T08:08:34.523Z,61.70
2017-05-23T08:11:01.884Z,61.50
2017-05-23T08:13:29.170Z,61.20
2017-05-23T08:15:56.455Z,61.10
2017-05-23T08:18:23.809Z,61.30
2017-05-23T08:20:51.103Z,62.70
2017-05-23T08:23:18.422Z,63.30
2017-05-23T08:25:45.754Z,63.10
2017-05-23T08:28:13.173Z,62.70
2017-05-23T08:30:40.431Z,62.70
2017-05-23T08:33:07.847Z,62.70
2017-05-23T08:35:35.209Z,62.00
2017-05-23T08:38:02.501Z,62.10
2017-05-23T08:40:29.833Z,60.60
2017-05-23T08:42:57.124Z,61.10
2017-05-23T08:45:24.405Z,61.40
2017-05-23T08:47:51.362Z,61.40
2017-05-23T08:50:18.718Z,62.00
2017-05-23T08:52:46.089Z,60.40
2017-05-23T08:55:13.128Z,60.40
2017-05-23T08:57:40.415Z,60.20
2017-05-23T09:00:07.716Z,60.60
2017-05-23T09:02:35.045Z,61.30
2017-05-23T09:05:02.381Z,61.40
2017-05-23T09:07:29.802Z,60.70
2017-05-23T09:09:57.092Z,61.30
2017-05-23T09:12:24.410Z,60.90
2017-05-23T09:14:51.749Z,60.40
2017-05-23T09:17:19.042Z,61.20
2017-05-23T09:19:46.336Z,60.50
2017-05-23T09:22:13.737Z,60.40
2017-05-23T09:24:41.051Z,61.00
2017-05-23T09:27:08.345Z,60.60
2017-05-23T09:29:35.678Z,60.30
2017-05-23T09:32:02.969Z,60.40
2017-05-23T09:34:30.311Z,59.70
2017-05-23T09:36:57.647Z,59.70
2017-05-23T09:39:24.931Z,58.50
2017-05-23T09:41:51.857Z,58.50
2017-05-23T09:44:19.182Z,60.40
2017-05-23T09:46:46.470Z,60.10
2017-05-23T09:49:13.826Z,60.10
2017-05-23T09:51:41.123Z,59.60
2017-05-23T09:54:08.433Z,59.20
2017-05-23T09:56:35.830Z,59.20
2017-05-23T09:59:03.182Z,58.20
2017-05-23T10:01:30.540Z,58.30
2017-05-23T10:03:57.875Z,59.40
2017-05-23T10:06:25.213Z,60.00
2017-05-23T10:08:52.498Z,57.80
2017-05-23T10:11:19.462Z,57.80
2017-05-23T10:13:46.755Z,57.90
2017-05-23T10:16:14.043Z,58.10
2017-05-23T10:18:41.490Z,57.90
2017-05-23T10:21:08.786Z,57.20
2017-05-23T10:23:36.106Z,56.80
2017-05-23T10:26:03.455Z,57.00
2017-05-23T10:28:30.738Z,55.60
2017-05-23T10:30:58.130Z,57.20
2017-05-23T10:33:25.479Z,56.50
2017-05-23T10:35:52.769Z,56.00
2017-05-23T10:38:20.053Z,56.10
2017-05-23T10:40:47.396Z,55.70
2017-05-23T10:43:14.706Z,55.00
2017-05-23T10:45:42.066Z,54.60
2017-05-23T10:48:09.388Z,55.40
2017-05-23T10:50:36.762Z,55.70
2017-05-23T10:53:04.111Z,55.20
2017-05-23T10:55:31.073Z,55.20
2017-05-23T10:57:58.354Z,54.40
2017-05-23T11:00:25.670Z,55.50
2017-05-23T11:02:53.026Z,56.00
2017-05-23T11:05:20.326Z,55.30
2017-05-23T11:07:47.623Z,54.90
2017-05-23T11:10:14.945Z,55.80
2017-05-23T11:12:42.247Z,55.50
2017-05-23T11:15:09.606Z,56.50
2017-05-23T11:17:36.942Z,54.60
2017-05-23T11:20:03.834Z,54.60
2017-05-23T11:22:30.738Z,56.10
2017-05-23T11:24:58.070Z,55.90
2017-05-23T11:27:24.954Z,55.90
2017-05-23T11:29:52.235Z,54.50
2017-05-23T11:32:19.653Z,54.90
2017-05-23T11:34:47.010Z,55.20
2017-05-23T11:37:14.367Z,54.40
2017-05-23T11:39:41.703Z,54.60
2017-05-23T11:42:08.987Z,53.80
2017-05-23T11:44:36.330Z,52.50
2017-05-23T11:47:03.262Z,52.50
2017-05-23T11:49:30.547Z,54.50
2017-05-23T11:51:57.938Z,54.90
2017-05-23T11:54:24.870Z,54.90
2017-05-23T11:56:52.238Z,53.20
2017-05-23T11:59:19.182Z,53.20
2017-05-23T12:01:46.641Z,51.90
2017-05-23T12:04:13.945Z,52.10
2017-05-23T12:06:41.253Z,50.60
2017-05-23T12:09:08.601Z,48.20
2017-05-23T12:11:35.882Z,49.60
2017-05-23T12:14:03.202Z,48.90
2017-05-23T12:16:30.561Z,48.40
2017-05-23T12:18:57.463Z,48.40
2017-05-23T12:21:24.749Z,47.80
2017-05-23T12:23:51.718Z,47.80
2017-05-23T12:26:19.006Z,47.30
2017-05-23T12:28:46.290Z,47.80
2017-05-23T12:31:13.618Z,46.70
2017-05-23T12:33:40.913Z,45.90
2017-05-23T12:36:08.305Z,46.20
2017-05-23T12:38:35.661Z,46.60
2017-05-23T12:41:02.937Z,47.20
2017-05-23T12:43:30.385Z,47.70
2017-05-23T12:45:57.306Z,47.70
2017-05-23T12:48:24.585Z,48.20
2017-05-23T12:50:51.941Z,48.60
2017-05-23T12:53:19.218Z,49.10
2017-05-23T12:55:46.538Z,49.60
2017-05-23T12:58:13.905Z,48.80
2017-05-23T13:00:41.258Z,49.10
2017-05-23T13:03:08.600Z,49.20
2017-05-23T13:05:35.988Z,49.20
2017-05-23T13:08:03.287Z,49.10
2017-05-23T13:10:30.186Z,49.10
2017-05-23T13:12:57.247Z,49.60
2017-05-23T13:15:24.555Z,51.40
2017-05-23T13:17:51.845Z,51.40
2017-05-23T13:20:19.282Z,51.30
2017-05-23T13:22:46.641Z,51.40
2017-05-23T13:25:13.582Z,51.40
2017-05-23T13:27:40.942Z,51.10
2017-05-23T13:30:08.334Z,50.40
2017-05-23T13:32:35.645Z,50.40
2017-05-23T13:35:02.593Z,50.40
2017-05-23T13:37:29.879Z,49.60
2017-05-23T13:39:57.178Z,50.10
2017-05-23T13:42:24.150Z,50.10
2017-05-23T13:44:51.510Z,50.40
2017-05-23T13:47:18.962Z,50.40
2017-05-23T13:49:46.319Z,51.30
2017-05-23T13:52:13.681Z,51.40
2017-05-23T13:54:41.042Z,51.40
2017-05-23T13:57:08.396Z,51.60
2017-05-23T13:59:35.746Z,52.00
2017-05-23T14:02:02.642Z,52.00
2017-05-23T14:04:29.974Z,52.20
2017-05-23T14:06:57.262Z,52.10
2017-05-23T14:09:24.662Z,52.20
2017-05-23T14:11:51.752Z,52.20
2017-05-23T14:14:19.062Z,53.20
2017-05-23T14:16:46.425Z,53.20
2017-05-23T14:19:13.762Z,53.00
2017-05-23T14:21:41.134Z,52.90
2017-05-23T14:24:08.494Z,52.80
2017-05-23T14:26:35.433Z,52.80
2017-05-23T14:29:02.315Z,52.20
2017-05-23T14:31:29.663Z,52.40
2017-05-23T14:33:56.943Z,52.10
2017-05-23T14:36:24.246Z,51.10
2017-05-23T14:38:51.202Z,51.10
2017-05-23T14:41:18.097Z,50.90
2017-05-23T14:43:45.390Z,51.60
2017-05-23T14:46:12.738Z,52.00
2017-05-23T14:48:40.102Z,52.20
2017-05-23T14:51:07.454Z,51.90
2017-05-23T14:53:34.810Z,51.60
2017-05-23T14:56:01.799Z,51.60
2017-05-23T14:58:29.156Z,51.00
2017-05-23T15:00:56.565Z,51.00
2017-05-23T15:03:23.936Z,50.90
2017-05-23T15:05:51.292Z,51.00
2017-05-23T15:08:18.662Z,51.30
2017-05-23T15:10:45.998Z,52.20
2017-05-23T15:13:13.273Z,52.20
2017-05-23T15:15:40.212Z,52.30
2017-05-23T15:18:07.588Z,52.40
2017-05-23T15:20:34.895Z,51.80
2017-05-23T15:23:02.218Z,51.60
2017-05-23T15:25:29.153Z,51.60
2017-05-23T15:27:56.467Z,52.20
2017-05-23T15:30:23.855Z,52.20
2017-05-23T15:32:51.182Z,52.80
2017-05-23T15:35:18.644Z,53.10
2017-05-23T15:37:45.990Z,53.00
2017-05-23T15:40:13.270Z,53.50
2017-05-23T15:42:40.563Z,53.70
2017-05-23T15:45:07.901Z,54.00
2017-05-23T15:47:35.253Z,53.20
2017-05-23T15:50:02.608Z,53.70
2017-05-23T15:52:29.540Z,53.70
2017-05-23T15:54:56.834Z,52.60
2017-05-23T15:57:23.811Z,52.60
2017-05-23T15:59:51.166Z,52.90
2017-05-23T16:02:18.481Z,52.90
2017-05-23T16:04:45.797Z,52.90
2017-05-23T16:07:13.150Z,52.70
2017-05-23T16:09:40.525Z,52.60
2017-05-23T16:12:07.859Z,51.90
2017-05-23T16:14:34.858Z,51.90
2017-05-23T16:17:02.174Z,51.90
2017-05-23T16:19:29.537Z,51.90
2017-05-23T16:21:56.482Z,51.90
2017-05-23T16:24:23.775Z,51.90
2017-05-23T16:26:50.681Z,51.90
2017-05-23T16:29:17.618Z,51.90
2017-05-23T16:31:44.982Z,51.80
2017-05-23T16:34:11.875Z,51.80
2017-05-23T16:36:39.305Z,52.30
2017-05-23T16:39:06.643Z,52.70
2017-05-23T16:41:33.954Z,53.20
2017-05-23T16:44:00.950Z,53.20
2017-05-23T16:46:28.237Z,53.70
2017-05-23T16:48:55.546Z,53.60
2017-05-23T16:51:22.482Z,53.60
2017-05-23T16:53:49.778Z,53.30
2017-05-23T16:56:17.118Z,52.90
2017-05-23T16:58:44.157Z,52.90
2017-05-23T17:01:11.450Z,53.20
2017-05-23T17:03:38.740Z,53.10
2017-05-23T17:06:06.077Z,53.00
2017-05-23T17:08:33.418Z,52.00
2017-05-23T17:11:00.707Z,51.50
2017-05-23T17:13:28.143Z,51.10
2017-05-23T17:15:55.418Z,50.90
2017-05-23T17:18:22.733Z,50.60
2017-05-23T17:20:50.082Z,51.20
2017-05-23T17:23:17.374Z,52.20
2017-05-23T17:25:44.659Z,52.00
2017-05-23T17:28:12.066Z,53.10
2017-05-23T17:30:39.406Z,53.70
2017-05-23T17:33:06.773Z,54.20
2017-05-23T17:35:34.099Z,54.10
2017-05-23T17:38:01.070Z,54.10
2017-05-23T17:40:28.429Z,54.20
2017-05-23T17:42:55.753Z,54.70
2017-05-23T17:45:23.041Z,55.10
2017-05-23T17:47:50.398Z,55.30
2017-05-23T17:50:17.758Z,55.50
2017-05-23T17:52:45.098Z,55.40
2017-05-23T17:55:11.993Z,55.40
2017-05-23T17:57:39.088Z,55.20
2017-05-23T18:00:06.354Z,55.20
2017-05-23T18:02:33.707Z,55.40
2017-05-23T18:05:01.074Z,55.70
2017-05-23T18:07:28.367Z,55.50
2017-05-23T18:09:55.647Z,56.40
2017-05-23T18:12:22.983Z,57.50
2017-05-23T18:14:50.289Z,57.40
2017-05-23T18:17:17.200Z,57.40
2017-05-23T18:19:44.590Z,57.70
2017-05-23T18:22:11.942Z,57.90
2017-05-23T18:24:39.306Z,58.30
2017-05-23T18:27:06.659Z,58.50
2017-05-23T18:29:33.971Z,58.80
2017-05-23T18:32:00.861Z,58.80
2017-05-23T18:34:28.184Z,59.00
2017-05-23T18:36:55.514Z,58.70
2017-05-23T18:39:22.801Z,59.00
2017-05-23T18:41:50.134Z,59.50
2017-05-23T18:44:17.525Z,59.70
2017-05-23T18:46:44.890Z,59.90
2017-05-23T18:49:12.175Z,60.20
2017-05-23T18:51:39.526Z,60.90
2017-05-23T18:54:06.442Z,60.90
2017-05-23T18:56:33.337Z,60.70
2017-05-23T18:59:00.659Z,60.90
2017-05-23T19:01:27.954Z,61.10
2017-05-23T19:03:55.248Z,61.30
2017-05-23T19:06:22.644Z,61.10
2017-05-23T19:08:50.001Z,61.20
2017-05-23T19:11:17.313Z,61.50
2017-05-23T19:13:44.365Z,61.50
2017-05-23T19:16:11.650Z,61.60
2017-05-23T19:18:38.538Z,61.60
2017-05-23T19:21:05.521Z,61.50
2017-05-23T19:23:32.819Z,61.80
2017-05-23T19:26:00.126Z,61.90
2017-05-23T19:31:01.182Z,61.50
2017-05-23T19:33:28.538Z,61.50
2017-05-23T19:35:55.824Z,61.70
2017-05-23T19:38:23.169Z,61.80
2017-05-23T19:40:50.535Z,61.70
2017-05-23T19:43:17.825Z,61.70
2017-05-23T19:45:45.118Z,62.10
2017-05-23T19:48:12.469Z,62.50
2017-05-23T19:50:39.762Z,62.10
2017-05-23T19:53:07.049Z,61.90
2017-05-23T19:55:34.408Z,61.50
2017-05-23T19:58:01.689Z,61.10
2017-05-23T20:00:28.999Z,61.20
2017-05-23T20:02:56.423Z,60.90
2017-05-23T20:05:23.717Z,61.10
2017-05-23T20:07:51.027Z,61.00
2017-05-23T20:10:18.365Z,60.50
2017-05-23T20:12:45.762Z,60.80
2017-05-23T20:15:13.072Z,60.70
2017-05-23T20:17:40.434Z,60.40
2017-05-23T20:20:07.755Z,60.10
2017-05-23T20:22:35.051Z,59.90
2017-05-23T20:25:02.399Z,60.20
2017-05-23T20:27:29.302Z,60.30
2017-05-23T20:29:56.191Z,60.00
2017-05-23T20:32:23.551Z,59.80
2017-05-23T20:34:50.915Z,60.00
2017-05-23T20:37:18.264Z,60.20
2017-05-23T20:39:45.645Z,60.00
2017-05-23T20:42:12.932Z,59.90
2017-05-23T20:44:40.219Z,59.80
2017-05-23T20:47:07.585Z,59.80
2017-05-23T20:49:34.481Z,59.80
2017-05-23T20:52:01.778Z,59.80
2017-05-23T20:54:29.114Z,59.50
2017-05-23T20:56:56.494Z,59.60
2017-05-23T20:59:23.792Z,59.70
2017-05-23T21:01:50.751Z,59.70
2017-05-23T21:04:17.743Z,59.90
2017-05-23T21:06:44.686Z,59.90
2017-05-23T21:09:12.039Z,59.80
2017-05-23T21:11:39.334Z,59.50
2017-05-23T21:14:06.234Z,59.50
2017-05-23T21:16:33.569Z,58.80
2017-05-23T21:19:00.850Z,59.10
2017-05-23T21:21:28.144Z,58.60
2017-05-23T21:23:55.529Z,59.00
2017-05-23T21:26:22.822Z,58.70
2017-05-23T21:28:50.107Z,58.90
2017-05-23T21:31:17.549Z,58.90
2017-05-23T21:33:44.833Z,59.20
2017-05-23T21:36:12.129Z,59.40
2017-05-23T21:38:39.502Z,59.20
2017-05-23T21:41:06.810Z,59.00
2017-05-23T21:43:34.099Z,59.20
2017-05-23T21:46:01.057Z,59.20
2017-05-23T21:48:28.375Z,59.00
2017-05-23T21:50:55.758Z,59.20
2017-05-23T21:53:23.088Z,59.50
2017-05-23T21:55:50.388Z,59.40
2017-05-23T21:58:17.727Z,59.20
2017-05-23T22:00:45.142Z,59.50
2017-05-23T22:03:12.422Z,59.70
2017-05-23T22:05:39.799Z,59.30
2017-05-23T22:08:07.158Z,59.30
2017-05-23T22:10:34.447Z,59.90
2017-05-23T22:13:01.733Z,59.70
2017-05-23T22:15:29.126Z,60.10
2017-05-23T22:17:56.410Z,60.10
2017-05-23T22:20:23.699Z,60.00
2017-05-23T22:22:51.090Z,60.00
2017-05-23T22:25:18.379Z,60.10
2017-05-23T22:27:45.671Z,60.20
2017-05-23T22:30:12.993Z,60.30
2017-05-23T22:32:40.293Z,60.30
2017-05-23T22:35:07.646Z,60.10
2017-05-23T22:37:34.994Z,60.10
2017-05-23T22:40:01.962Z,60.10
2017-05-23T22:42:29.256Z,60.40
2017-05-23T22:44:56.619Z,60.20
2017-05-23T22:47:23.910Z,60.00
2017-05-23T22:49:51.282Z,59.70
2017-05-23T22:52:18.695Z,59.90
2017-05-23T22:54:45.571Z,59.90
2017-05-23T22:57:12.530Z,59.90
2017-05-23T22:59:39.875Z,60.30
2017-05-23T23:02:07.242Z,60.00
2017-05-23T23:04:34.537Z,60.00
2017-05-23T23:07:01.995Z,60.10
2017-05-23T23:09:29.310Z,59.70
2017-05-23T23:11:56.671Z,59.60
2017-05-23T23:14:24.022Z,59.50
2017-05-23T23:16:51.314Z,59.60
2017-05-23T23:19:18.603Z,59.70
2017-05-23T23:21:46.042Z,59.90
2017-05-23T23:24:13.338Z,60.30
2017-05-23T23:26:40.698Z,60.80
2017-05-23T23:29:08.054Z,61.20
2017-05-23T23:31:35.343Z,60.90
2017-05-23T23:34:02.617Z,61.10
2017-05-23T23:36:30.022Z,61.10
2017-05-23T23:38:57.370Z,61.00
2017-05-23T23:41:24.668Z,60.90
2017-05-23T23:43:52.086Z,61.40
2017-05-23T23:46:19.466Z,61.40
2017-05-23T23:48:46.787Z,61.50
2017-05-23T23:51:14.118Z,61.50
2017-05-23T23:53:41.516Z,61.70
2017-05-23T23:56:08.473Z,61.70
2017-05-23T23:58:35.805Z,61.90
